sensor_id;sensor_type;location;lat;lon;timestamp;P1;durP1;ratioP1;P2;durP2;ratioP2
68375;SDS011;55318;52.068;5.188;2023-03-12T00:00:23;6.1;;;3.2;;
68375;SDS011;55318;52.068;5.188;2023-03-12T00:03:38;5.7;;;3.1;;
68375;SDS011;55318;52.068;5.188;2023-03-12T00:05:14;5.8;;;2.7;;
68375;SDS011;55318;52.068;5.188;2023-03-12T00:06:50;6.0;;;2.8;;
68375;SDS011;55318;52.068;5.188;2023-03-12T00:10:04;6.7;;;2.9;;
68375;SDS011;55318;52.068;5.188;2023-03-12T00:11:41;6.3;;;2.9;;
68375;SDS011;55318;52.068;5.188;2023-03-12T00:13:17;5.9;;;2.7;;
68375;SDS011;55318;52.068;5.188;2023-03-12T00:14:53;4.61;;;2.5;;
68375;SDS011;55318;52.068;5.188;2023-03-12T00:18:07;3.5;;;2.6;;
68375;SDS011;55318;52.068;5.188;2023-03-12T00:19:43;5.3;;;2.6;;
68375;SDS011;55318;52.068;5.188;2023-03-12T00:21:20;6.9;;;2.7;;
68375;SDS011;55318;52.068;5.188;2023-03-12T00:24:34;6.8;;;2.6;;
68375;SDS011;55318;52.068;5.188;2023-03-12T00:26:11;5.3;;;2.7;;
68375;SDS011;55318;52.068;5.188;2023-03-12T00:27:48;5.11;;;2.8;;
68375;SDS011;55318;52.068;5.188;2023-03-12T00:29:24;3.5;;;2.5;;
68375;SDS011;55318;52.068;5.188;2023-03-12T00:32:38;2.9;;;2.6;;
68375;SDS011;55318;52.068;5.188;2023-03-12T00:34:14;3.9;;;2.6;;
68375;SDS011;55318;52.068;5.188;2023-03-12T00:35:50;4.3;;;2.4;;
68375;SDS011;55318;52.068;5.188;2023-03-12T00:39:03;5.8;;;3.1;;
68375;SDS011;55318;52.068;5.188;2023-03-12T00:40:39;6.4;;;2.7;;
68375;SDS011;55318;52.068;5.188;2023-03-12T00:42:15;3.7;;;2.5;;
68375;SDS011;55318;52.068;5.188;2023-03-12T00:45:29;3.9;;;2.5;;
68375;SDS011;55318;52.068;5.188;2023-03-12T00:47:05;6.5;;;3.0;;
68375;SDS011;55318;52.068;5.188;2023-03-12T00:48:42;8.31;;;2.5;;
68375;SDS011;55318;52.068;5.188;2023-03-12T00:50:19;5.9;;;2.6;;
68375;SDS011;55318;52.068;5.188;2023-03-12T00:53:32;5.3;;;2.31;;
68375;SDS011;55318;52.068;5.188;2023-03-12T00:55:08;4.2;;;2.4;;
68375;SDS011;55318;52.068;5.188;2023-03-12T00:56:44;3.5;;;2.1;;
68375;SDS011;55318;52.068;5.188;2023-03-12T00:59:59;4.8;;;3.0;;
68375;SDS011;55318;52.068;5.188;2023-03-12T01:01:35;4.5;;;2.4;;
68375;SDS011;55318;52.068;5.188;2023-03-12T01:03:11;3.9;;;2.5;;
68375;SDS011;55318;52.068;5.188;2023-03-12T01:06:24;3.1;;;2.4;;
68375;SDS011;55318;52.068;5.188;2023-03-12T01:08:01;5.0;;;2.8;;
68375;SDS011;55318;52.068;5.188;2023-03-12T01:09:38;4.1;;;2.1;;
68375;SDS011;55318;52.068;5.188;2023-03-12T01:11:15;3.6;;;2.1;;
68375;SDS011;55318;52.068;5.188;2023-03-12T01:14:30;8.4;;;2.6;;
68375;SDS011;55318;52.068;5.188;2023-03-12T01:16:06;3.7;;;1.9;;
68375;SDS011;55318;52.068;5.188;2023-03-12T01:17:43;5.0;;;3.0;;
68375;SDS011;55318;52.068;5.188;2023-03-12T01:20:55;4.2;;;2.7;;
68375;SDS011;55318;52.068;5.188;2023-03-12T01:22:31;5.2;;;2.31;;
68375;SDS011;55318;52.068;5.188;2023-03-12T01:24:08;3.9;;;2.21;;
68375;SDS011;55318;52.068;5.188;2023-03-12T01:27:22;6.6;;;2.21;;
68375;SDS011;55318;52.068;5.188;2023-03-12T01:28:58;4.3;;;2.5;;
68375;SDS011;55318;52.068;5.188;2023-03-12T01:30:35;3.9;;;2.5;;
68375;SDS011;55318;52.068;5.188;2023-03-12T01:32:11;4.2;;;2.31;;
68375;SDS011;55318;52.068;5.188;2023-03-12T01:35:26;5.2;;;2.6;;
68375;SDS011;55318;52.068;5.188;2023-03-12T01:37:02;3.4;;;2.4;;
68375;SDS011;55318;52.068;5.188;2023-03-12T01:38:39;4.61;;;2.6;;
68375;SDS011;55318;52.068;5.188;2023-03-12T01:41:56;4.0;;;2.4;;
68375;SDS011;55318;52.068;5.188;2023-03-12T01:43:33;5.6;;;2.5;;
68375;SDS011;55318;52.068;5.188;2023-03-12T01:46:32;5.6;;;2.21;;
68375;SDS011;55318;52.068;5.188;2023-03-12T01:48:50;3.9;;;2.1;;
68375;SDS011;55318;52.068;5.188;2023-03-12T01:50:34;4.8;;;2.31;;
68375;SDS011;55318;52.068;5.188;2023-03-12T01:52:12;8.0;;;3.0;;
68375;SDS011;55318;52.068;5.188;2023-03-12T01:53:52;3.9;;;2.0;;
68375;SDS011;55318;52.068;5.188;2023-03-12T01:55:33;4.41;;;2.21;;
68375;SDS011;55318;52.068;5.188;2023-03-12T01:58:53;4.1;;;2.21;;
68375;SDS011;55318;52.068;5.188;2023-03-12T02:00:33;3.2;;;2.5;;
68375;SDS011;55318;52.068;5.188;2023-03-12T02:02:10;4.61;;;2.6;;
68375;SDS011;55318;52.068;5.188;2023-03-12T02:03:49;4.5;;;2.7;;
68375;SDS011;55318;52.068;5.188;2023-03-12T02:07:12;4.8;;;2.0;;
68375;SDS011;55318;52.068;5.188;2023-03-12T02:08:51;4.2;;;2.0;;
68375;SDS011;55318;52.068;5.188;2023-03-12T02:10:28;2.8;;;1.8;;
68375;SDS011;55318;52.068;5.188;2023-03-12T02:12:04;5.6;;;2.4;;
68375;SDS011;55318;52.068;5.188;2023-03-12T02:15:19;2.9;;;1.9;;
68375;SDS011;55318;52.068;5.188;2023-03-12T02:16:56;3.9;;;2.21;;
68375;SDS011;55318;52.068;5.188;2023-03-12T02:18:33;4.61;;;2.0;;
68375;SDS011;55318;52.068;5.188;2023-03-12T02:21:54;10.0;;;2.0;;
68375;SDS011;55318;52.068;5.188;2023-03-12T02:23:34;6.9;;;1.9;;
68375;SDS011;55318;52.068;5.188;2023-03-12T02:25:20;3.9;;;2.1;;
68375;SDS011;55318;52.068;5.188;2023-03-12T02:27:03;6.2;;;2.31;;
68375;SDS011;55318;52.068;5.188;2023-03-12T02:28:41;3.8;;;2.7;;
68375;SDS011;55318;52.068;5.188;2023-03-12T02:31:55;3.8;;;2.21;;
68375;SDS011;55318;52.068;5.188;2023-03-12T02:33:35;5.7;;;1.9;;
68375;SDS011;55318;52.068;5.188;2023-03-12T02:35:12;1.7;;;1.6;;
68375;SDS011;55318;52.068;5.188;2023-03-12T02:38:30;3.0;;;1.8;;
68375;SDS011;55318;52.068;5.188;2023-03-12T02:40:14;2.9;;;1.7;;
68375;SDS011;55318;52.068;5.188;2023-03-12T02:41:57;3.9;;;2.4;;
68375;SDS011;55318;52.068;5.188;2023-03-12T02:43:35;4.0;;;2.1;;
68375;SDS011;55318;52.068;5.188;2023-03-12T02:46:50;3.8;;;1.7;;
68375;SDS011;55318;52.068;5.188;2023-03-12T02:48:29;3.1;;;1.9;;
68375;SDS011;55318;52.068;5.188;2023-03-12T02:50:06;4.7;;;2.0;;
68375;SDS011;55318;52.068;5.188;2023-03-12T02:51:44;6.0;;;2.21;;
68375;SDS011;55318;52.068;5.188;2023-03-12T02:54:58;3.6;;;1.8;;
68375;SDS011;55318;52.068;5.188;2023-03-12T02:56:34;3.1;;;1.8;;
68375;SDS011;55318;52.068;5.188;2023-03-12T02:58:11;2.7;;;1.8;;
68375;SDS011;55318;52.068;5.188;2023-03-12T03:01:24;5.3;;;2.8;;
68375;SDS011;55318;52.068;5.188;2023-03-12T03:03:01;2.21;;;1.7;;
68375;SDS011;55318;52.068;5.188;2023-03-12T03:04:37;4.1;;;2.1;;
68375;SDS011;55318;52.068;5.188;2023-03-12T03:07:51;3.7;;;1.7;;
68375;SDS011;55318;52.068;5.188;2023-03-12T03:09:27;4.41;;;2.31;;
68375;SDS011;55318;52.068;5.188;2023-03-12T03:11:03;3.1;;;1.6;;
68375;SDS011;55318;52.068;5.188;2023-03-12T03:12:40;3.7;;;2.1;;
68375;SDS011;55318;52.068;5.188;2023-03-12T03:15:53;3.3;;;1.6;;
68375;SDS011;55318;52.068;5.188;2023-03-12T03:17:30;3.3;;;1.7;;
68375;SDS011;55318;52.068;5.188;2023-03-12T03:19:06;4.5;;;2.1;;
68375;SDS011;55318;52.068;5.188;2023-03-12T03:22:19;3.4;;;2.0;;
68375;SDS011;55318;52.068;5.188;2023-03-12T03:23:57;7.4;;;2.1;;
68375;SDS011;55318;52.068;5.188;2023-03-12T03:25:33;4.41;;;1.8;;
68375;SDS011;55318;52.068;5.188;2023-03-12T03:28:46;3.7;;;2.4;;
68375;SDS011;55318;52.068;5.188;2023-03-12T03:30:24;3.3;;;1.6;;
68375;SDS011;55318;52.068;5.188;2023-03-12T03:32:00;2.0;;;1.6;;
68375;SDS011;55318;52.068;5.188;2023-03-12T03:33:37;3.3;;;1.8;;
68375;SDS011;55318;52.068;5.188;2023-03-12T03:36:51;5.11;;;2.31;;
68375;SDS011;55318;52.068;5.188;2023-03-12T03:38:31;5.11;;;1.7;;
68375;SDS011;55318;52.068;5.188;2023-03-12T03:40:09;4.2;;;1.7;;
68375;SDS011;55318;52.068;5.188;2023-03-12T03:43:23;4.5;;;1.9;;
68375;SDS011;55318;52.068;5.188;2023-03-12T03:45:01;3.2;;;1.6;;
68375;SDS011;55318;52.068;5.188;2023-03-12T03:46:38;3.8;;;1.9;;
68375;SDS011;55318;52.068;5.188;2023-03-12T03:51:27;2.4;;;1.8;;
68375;SDS011;55318;52.068;5.188;2023-03-12T03:53:04;3.1;;;1.7;;
68375;SDS011;55318;52.068;5.188;2023-03-12T03:54:42;5.3;;;2.9;;
68375;SDS011;55318;52.068;5.188;2023-03-12T03:57:56;2.8;;;1.9;;
68375;SDS011;55318;52.068;5.188;2023-03-12T03:59:32;3.0;;;1.9;;
68375;SDS011;55318;52.068;5.188;2023-03-12T04:01:08;6.5;;;2.7;;
68375;SDS011;55318;52.068;5.188;2023-03-12T04:02:47;3.1;;;2.0;;
68375;SDS011;55318;52.068;5.188;2023-03-12T04:06:01;4.3;;;2.21;;
68375;SDS011;55318;52.068;5.188;2023-03-12T04:07:39;7.5;;;2.0;;
68375;SDS011;55318;52.068;5.188;2023-03-12T04:09:15;3.0;;;1.8;;
68375;SDS011;55318;52.068;5.188;2023-03-12T04:12:28;4.1;;;1.8;;
68375;SDS011;55318;52.068;5.188;2023-03-12T04:14:05;1.6;;;1.4;;
68375;SDS011;55318;52.068;5.188;2023-03-12T04:15:44;4.1;;;2.0;;
68375;SDS011;55318;52.068;5.188;2023-03-12T04:18:58;4.3;;;2.1;;
68375;SDS011;55318;52.068;5.188;2023-03-12T04:20:35;2.7;;;1.8;;
68375;SDS011;55318;52.068;5.188;2023-03-12T04:22:11;2.9;;;2.0;;
68375;SDS011;55318;52.068;5.188;2023-03-12T04:23:47;3.5;;;1.6;;
68375;SDS011;55318;52.068;5.188;2023-03-12T04:26:59;3.8;;;2.0;;
68375;SDS011;55318;52.068;5.188;2023-03-12T04:28:35;2.8;;;2.0;;
68375;SDS011;55318;52.068;5.188;2023-03-12T04:30:13;4.7;;;1.9;;
68375;SDS011;55318;52.068;5.188;2023-03-12T04:33:25;4.7;;;1.9;;
68375;SDS011;55318;52.068;5.188;2023-03-12T04:35:02;4.0;;;1.7;;
68375;SDS011;55318;52.068;5.188;2023-03-12T04:36:39;9.5;;;2.21;;
68375;SDS011;55318;52.068;5.188;2023-03-12T04:39:53;4.91;;;2.31;;
68375;SDS011;55318;52.068;5.188;2023-03-12T04:41:29;4.0;;;2.1;;
68375;SDS011;55318;52.068;5.188;2023-03-12T04:43:05;2.8;;;1.7;;
68375;SDS011;55318;52.068;5.188;2023-03-12T04:44:42;3.7;;;2.0;;
68375;SDS011;55318;52.068;5.188;2023-03-12T04:47:54;4.3;;;1.8;;
68375;SDS011;55318;52.068;5.188;2023-03-12T04:49:30;5.2;;;2.21;;
68375;SDS011;55318;52.068;5.188;2023-03-12T04:51:06;3.4;;;2.5;;
68375;SDS011;55318;52.068;5.188;2023-03-12T04:54:18;3.6;;;2.0;;
68375;SDS011;55318;52.068;5.188;2023-03-12T04:55:56;2.5;;;1.6;;
68375;SDS011;55318;52.068;5.188;2023-03-12T04:57:32;2.31;;;1.6;;
68375;SDS011;55318;52.068;5.188;2023-03-12T05:00:44;4.61;;;1.6;;
68375;SDS011;55318;52.068;5.188;2023-03-12T05:02:22;4.41;;;2.4;;
68375;SDS011;55318;52.068;5.188;2023-03-12T05:03:59;5.11;;;2.0;;
68375;SDS011;55318;52.068;5.188;2023-03-12T05:05:36;2.31;;;1.5;;
68375;SDS011;55318;52.068;5.188;2023-03-12T05:08:50;2.5;;;1.7;;
68375;SDS011;55318;52.068;5.188;2023-03-12T05:10:27;5.0;;;2.31;;
68375;SDS011;55318;52.068;5.188;2023-03-12T05:12:03;3.0;;;2.21;;
68375;SDS011;55318;52.068;5.188;2023-03-12T05:15:18;5.2;;;2.31;;
68375;SDS011;55318;52.068;5.188;2023-03-12T05:16:55;3.0;;;1.8;;
68375;SDS011;55318;52.068;5.188;2023-03-12T05:18:31;2.31;;;2.0;;
68375;SDS011;55318;52.068;5.188;2023-03-12T05:21:47;2.31;;;2.0;;
68375;SDS011;55318;52.068;5.188;2023-03-12T05:23:23;4.7;;;2.4;;
68375;SDS011;55318;52.068;5.188;2023-03-12T05:25:00;2.7;;;1.7;;
68375;SDS011;55318;52.068;5.188;2023-03-12T05:26:37;4.0;;;2.0;;
68375;SDS011;55318;52.068;5.188;2023-03-12T05:29:50;5.8;;;2.21;;
68375;SDS011;55318;52.068;5.188;2023-03-12T05:31:27;4.1;;;2.0;;
68375;SDS011;55318;52.068;5.188;2023-03-12T05:33:04;2.5;;;1.5;;
68375;SDS011;55318;52.068;5.188;2023-03-12T05:36:18;4.0;;;2.1;;
68375;SDS011;55318;52.068;5.188;2023-03-12T05:37:55;3.1;;;2.1;;
68375;SDS011;55318;52.068;5.188;2023-03-12T05:39:31;5.11;;;2.6;;
68375;SDS011;55318;52.068;5.188;2023-03-12T05:41:08;5.9;;;1.9;;
68375;SDS011;55318;52.068;5.188;2023-03-12T05:44:30;3.1;;;2.31;;
68375;SDS011;55318;52.068;5.188;2023-03-12T05:46:06;5.0;;;2.5;;
68375;SDS011;55318;52.068;5.188;2023-03-12T05:47:44;2.6;;;1.9;;
68375;SDS011;55318;52.068;5.188;2023-03-12T05:50:57;3.3;;;2.21;;
68375;SDS011;55318;52.068;5.188;2023-03-12T05:52:33;3.9;;;2.0;;
68375;SDS011;55318;52.068;5.188;2023-03-12T05:54:09;4.5;;;2.4;;
68375;SDS011;55318;52.068;5.188;2023-03-12T05:55:45;4.2;;;1.9;;
68375;SDS011;55318;52.068;5.188;2023-03-12T05:58:57;3.3;;;2.31;;
68375;SDS011;55318;52.068;5.188;2023-03-12T06:00:34;3.5;;;1.9;;
68375;SDS011;55318;52.068;5.188;2023-03-12T06:02:11;2.8;;;1.7;;
68375;SDS011;55318;52.068;5.188;2023-03-12T06:05:24;3.0;;;2.1;;
68375;SDS011;55318;52.068;5.188;2023-03-12T06:07:00;6.8;;;2.6;;
68375;SDS011;55318;52.068;5.188;2023-03-12T06:08:36;4.0;;;1.9;;
68375;SDS011;55318;52.068;5.188;2023-03-12T06:11:50;2.9;;;1.8;;
68375;SDS011;55318;52.068;5.188;2023-03-12T06:13:27;3.3;;;1.9;;
68375;SDS011;55318;52.068;5.188;2023-03-12T06:15:03;3.5;;;2.5;;
68375;SDS011;55318;52.068;5.188;2023-03-12T06:16:40;3.1;;;2.0;;
68375;SDS011;55318;52.068;5.188;2023-03-12T06:19:52;5.2;;;2.7;;
68375;SDS011;55318;52.068;5.188;2023-03-12T06:21:29;4.7;;;2.5;;
68375;SDS011;55318;52.068;5.188;2023-03-12T06:23:07;7.2;;;2.8;;
68375;SDS011;55318;52.068;5.188;2023-03-12T06:26:20;5.7;;;1.8;;
68375;SDS011;55318;52.068;5.188;2023-03-12T06:27:58;4.1;;;2.1;;
68375;SDS011;55318;52.068;5.188;2023-03-12T06:29:34;4.91;;;2.21;;
68375;SDS011;55318;52.068;5.188;2023-03-12T06:32:46;2.5;;;1.9;;
68375;SDS011;55318;52.068;5.188;2023-03-12T06:34:23;4.61;;;2.4;;
68375;SDS011;55318;52.068;5.188;2023-03-12T06:36:01;5.0;;;2.1;;
68375;SDS011;55318;52.068;5.188;2023-03-12T06:37:39;4.91;;;2.31;;
68375;SDS011;55318;52.068;5.188;2023-03-12T06:40:53;4.0;;;1.9;;
68375;SDS011;55318;52.068;5.188;2023-03-12T06:42:31;4.2;;;2.6;;
68375;SDS011;55318;52.068;5.188;2023-03-12T06:44:07;3.7;;;2.0;;
68375;SDS011;55318;52.068;5.188;2023-03-12T06:47:20;4.7;;;2.1;;
68375;SDS011;55318;52.068;5.188;2023-03-12T06:48:56;6.4;;;2.7;;
68375;SDS011;55318;52.068;5.188;2023-03-12T06:50:32;3.6;;;2.1;;
68375;SDS011;55318;52.068;5.188;2023-03-12T06:53:46;4.3;;;2.5;;
68375;SDS011;55318;52.068;5.188;2023-03-12T06:55:22;3.8;;;2.1;;
68375;SDS011;55318;52.068;5.188;2023-03-12T06:56:58;3.6;;;2.21;;
68375;SDS011;55318;52.068;5.188;2023-03-12T06:58:34;6.2;;;2.4;;
68375;SDS011;55318;52.068;5.188;2023-03-12T07:01:48;3.5;;;2.31;;
68375;SDS011;55318;52.068;5.188;2023-03-12T07:03:24;7.4;;;2.31;;
68375;SDS011;55318;52.068;5.188;2023-03-12T07:05:00;4.5;;;2.1;;
68375;SDS011;55318;52.068;5.188;2023-03-12T07:08:13;4.7;;;2.4;;
68375;SDS011;55318;52.068;5.188;2023-03-12T07:09:50;4.41;;;2.7;;
68375;SDS011;55318;52.068;5.188;2023-03-12T07:11:26;5.4;;;2.7;;
68375;SDS011;55318;52.068;5.188;2023-03-12T07:14:38;4.61;;;2.7;;
68375;SDS011;55318;52.068;5.188;2023-03-12T07:16:15;6.7;;;3.3;;
68375;SDS011;55318;52.068;5.188;2023-03-12T07:17:51;5.8;;;3.0;;
68375;SDS011;55318;52.068;5.188;2023-03-12T07:19:27;4.41;;;3.1;;
68375;SDS011;55318;52.068;5.188;2023-03-12T07:22:41;7.8;;;3.3;;
68375;SDS011;55318;52.068;5.188;2023-03-12T07:24:17;6.8;;;3.7;;
68375;SDS011;55318;52.068;5.188;2023-03-12T07:25:53;5.6;;;3.1;;
68375;SDS011;55318;52.068;5.188;2023-03-12T07:29:06;5.6;;;3.0;;
68375;SDS011;55318;52.068;5.188;2023-03-12T07:30:42;6.8;;;3.2;;
68375;SDS011;55318;52.068;5.188;2023-03-12T07:32:19;10.1;;;3.1;;
68375;SDS011;55318;52.068;5.188;2023-03-12T07:35:32;7.7;;;3.7;;
68375;SDS011;55318;52.068;5.188;2023-03-12T07:37:09;6.9;;;3.6;;
68375;SDS011;55318;52.068;5.188;2023-03-12T07:38:45;7.7;;;3.1;;
68375;SDS011;55318;52.068;5.188;2023-03-12T07:40:21;6.8;;;3.6;;
68375;SDS011;55318;52.068;5.188;2023-03-12T07:43:34;8.9;;;3.0;;
68375;SDS011;55318;52.068;5.188;2023-03-12T07:45:10;6.3;;;3.3;;
68375;SDS011;55318;52.068;5.188;2023-03-12T07:46:46;5.4;;;3.2;;
68375;SDS011;55318;52.068;5.188;2023-03-12T07:49:58;5.7;;;3.2;;
68375;SDS011;55318;52.068;5.188;2023-03-12T07:51:33;7.4;;;3.1;;
68375;SDS011;55318;52.068;5.188;2023-03-12T07:53:10;5.8;;;3.3;;
68375;SDS011;55318;52.068;5.188;2023-03-12T07:56:22;5.0;;;3.0;;
68375;SDS011;55318;52.068;5.188;2023-03-12T07:57:58;6.3;;;3.2;;
68375;SDS011;55318;52.068;5.188;2023-03-12T07:59:34;7.9;;;3.4;;
68375;SDS011;55318;52.068;5.188;2023-03-12T08:02:46;5.0;;;3.5;;
68375;SDS011;55318;52.068;5.188;2023-03-12T08:04:23;4.7;;;3.0;;
68375;SDS011;55318;52.068;5.188;2023-03-12T08:05:59;7.3;;;3.7;;
68375;SDS011;55318;52.068;5.188;2023-03-12T08:07:37;6.6;;;3.8;;
68375;SDS011;55318;52.068;5.188;2023-03-12T08:10:50;7.0;;;4.0;;
68375;SDS011;55318;52.068;5.188;2023-03-12T08:12:27;5.3;;;3.3;;
68375;SDS011;55318;52.068;5.188;2023-03-12T08:14:05;5.7;;;3.9;;
68375;SDS011;55318;52.068;5.188;2023-03-12T08:17:19;5.7;;;3.6;;
68375;SDS011;55318;52.068;5.188;2023-03-12T08:18:56;8.31;;;3.7;;
68375;SDS011;55318;52.068;5.188;2023-03-12T08:20:33;5.9;;;3.6;;
68375;SDS011;55318;52.068;5.188;2023-03-12T08:23:46;9.5;;;3.7;;
68375;SDS011;55318;52.068;5.188;2023-03-12T08:25:23;5.3;;;4.0;;
68375;SDS011;55318;52.068;5.188;2023-03-12T08:27:01;7.6;;;3.6;;
68375;SDS011;55318;52.068;5.188;2023-03-12T08:28:37;8.6;;;4.3;;
68375;SDS011;55318;52.068;5.188;2023-03-12T08:31:50;6.2;;;4.41;;
68375;SDS011;55318;52.068;5.188;2023-03-12T08:33:27;6.4;;;4.5;;
68375;SDS011;55318;52.068;5.188;2023-03-12T08:35:04;7.4;;;4.2;;
68375;SDS011;55318;52.068;5.188;2023-03-12T08:38:18;7.8;;;4.2;;
68375;SDS011;55318;52.068;5.188;2023-03-12T08:39:55;8.0;;;4.3;;
68375;SDS011;55318;52.068;5.188;2023-03-12T08:41:31;6.7;;;4.3;;
68375;SDS011;55318;52.068;5.188;2023-03-12T08:43:07;7.3;;;4.1;;
68375;SDS011;55318;52.068;5.188;2023-03-12T08:46:20;11.8;;;4.61;;
68375;SDS011;55318;52.068;5.188;2023-03-12T08:47:56;6.9;;;4.41;;
68375;SDS011;55318;52.068;5.188;2023-03-12T08:49:32;8.71;;;4.41;;
68375;SDS011;55318;52.068;5.188;2023-03-12T08:52:45;7.5;;;4.3;;
68375;SDS011;55318;52.068;5.188;2023-03-12T08:54:22;8.81;;;4.3;;
68375;SDS011;55318;52.068;5.188;2023-03-12T08:55:58;7.7;;;4.0;;
68375;SDS011;55318;52.068;5.188;2023-03-12T08:59:13;7.0;;;4.2;;
68375;SDS011;55318;52.068;5.188;2023-03-12T09:00:49;6.4;;;4.2;;
68375;SDS011;55318;52.068;5.188;2023-03-12T09:02:26;7.9;;;4.61;;
68375;SDS011;55318;52.068;5.188;2023-03-12T09:04:02;10.7;;;4.5;;
68375;SDS011;55318;52.068;5.188;2023-03-12T09:07:16;7.4;;;4.41;;
68375;SDS011;55318;52.068;5.188;2023-03-12T09:08:53;7.8;;;4.61;;
68375;SDS011;55318;52.068;5.188;2023-03-12T09:10:29;8.4;;;4.61;;
68375;SDS011;55318;52.068;5.188;2023-03-12T09:13:42;7.4;;;4.5;;
68375;SDS011;55318;52.068;5.188;2023-03-12T09:15:19;7.4;;;4.8;;
68375;SDS011;55318;52.068;5.188;2023-03-12T09:16:55;8.9;;;5.5;;
68375;SDS011;55318;52.068;5.188;2023-03-12T09:20:10;12.1;;;5.3;;
68375;SDS011;55318;52.068;5.188;2023-03-12T09:21:47;11.3;;;6.0;;
68375;SDS011;55318;52.068;5.188;2023-03-12T09:23:23;9.71;;;5.8;;
68375;SDS011;55318;52.068;5.188;2023-03-12T09:25:01;9.0;;;5.4;;
68375;SDS011;55318;52.068;5.188;2023-03-12T09:28:15;10.6;;;5.11;;
68375;SDS011;55318;52.068;5.188;2023-03-12T09:29:52;10.4;;;5.8;;
68375;SDS011;55318;52.068;5.188;2023-03-12T09:31:29;8.6;;;5.6;;
68375;SDS011;55318;52.068;5.188;2023-03-12T09:34:42;13.2;;;6.8;;
68375;SDS011;55318;52.068;5.188;2023-03-12T09:36:18;14.3;;;5.7;;
68375;SDS011;55318;52.068;5.188;2023-03-12T09:37:55;13.2;;;6.0;;
68375;SDS011;55318;52.068;5.188;2023-03-12T09:41:14;11.9;;;6.1;;
68375;SDS011;55318;52.068;5.188;2023-03-12T09:42:55;11.3;;;6.2;;
68375;SDS011;55318;52.068;5.188;2023-03-12T09:44:34;10.1;;;6.3;;
68375;SDS011;55318;52.068;5.188;2023-03-12T09:46:17;12.3;;;6.9;;
68375;SDS011;55318;52.068;5.188;2023-03-12T09:47:59;13.5;;;7.0;;
68375;SDS011;55318;52.068;5.188;2023-03-12T09:51:21;12.4;;;6.2;;
68375;SDS011;55318;52.068;5.188;2023-03-12T09:53:03;11.4;;;6.2;;
68375;SDS011;55318;52.068;5.188;2023-03-12T09:54:51;21.0;;;7.3;;
68375;SDS011;55318;52.068;5.188;2023-03-12T09:56:34;10.8;;;6.9;;
68375;SDS011;55318;52.068;5.188;2023-03-12T09:59:52;11.6;;;6.3;;
68375;SDS011;55318;52.068;5.188;2023-03-12T10:01:31;12.7;;;6.9;;
68375;SDS011;55318;52.068;5.188;2023-03-12T10:03:18;16.61;;;6.7;;
68375;SDS011;55318;52.068;5.188;2023-03-12T10:05:08;12.8;;;7.4;;
68375;SDS011;55318;52.068;5.188;2023-03-12T10:06:51;13.2;;;7.6;;
68375;SDS011;55318;52.068;5.188;2023-03-12T10:10:30;15.8;;;8.0;;
68375;SDS011;55318;52.068;5.188;2023-03-12T10:12:22;13.6;;;7.5;;
68375;SDS011;55318;52.068;5.188;2023-03-12T10:14:14;12.4;;;7.3;;
68375;SDS011;55318;52.068;5.188;2023-03-12T10:16:01;12.7;;;7.2;;
68375;SDS011;55318;52.068;5.188;2023-03-12T10:17:49;13.9;;;7.2;;
68375;SDS011;55318;52.068;5.188;2023-03-12T10:19:48;10.21;;;6.0;;
68375;SDS011;55318;52.068;5.188;2023-03-12T10:21:34;14.0;;;5.7;;
68375;SDS011;55318;52.068;5.188;2023-03-12T10:25:11;10.6;;;6.1;;
68375;SDS011;55318;52.068;5.188;2023-03-12T10:26:57;12.1;;;5.9;;
68375;SDS011;55318;52.068;5.188;2023-03-12T10:28:35;9.5;;;6.0;;
68375;SDS011;55318;52.068;5.188;2023-03-12T10:30:19;9.6;;;5.3;;
68375;SDS011;55318;52.068;5.188;2023-03-12T10:31:59;11.7;;;6.6;;
68375;SDS011;55318;52.068;5.188;2023-03-12T10:35:23;8.5;;;5.11;;
68375;SDS011;55318;52.068;5.188;2023-03-12T10:37:04;10.6;;;5.6;;
68375;SDS011;55318;52.068;5.188;2023-03-12T10:38:54;9.9;;;4.8;;
68375;SDS011;55318;52.068;5.188;2023-03-12T10:40:32;10.1;;;5.2;;
68375;SDS011;55318;52.068;5.188;2023-03-12T10:43:51;10.1;;;5.5;;
68375;SDS011;55318;52.068;5.188;2023-03-12T10:45:30;8.71;;;4.2;;
68375;SDS011;55318;52.068;5.188;2023-03-12T10:47:17;10.4;;;5.0;;
68375;SDS011;55318;52.068;5.188;2023-03-12T10:49:36;9.31;;;5.4;;
68375;SDS011;55318;52.068;5.188;2023-03-12T10:51:13;9.4;;;4.5;;
68375;SDS011;55318;52.068;5.188;2023-03-12T10:52:50;8.0;;;4.91;;
68375;SDS011;55318;52.068;5.188;2023-03-12T10:56:25;10.1;;;4.7;;
68375;SDS011;55318;52.068;5.188;2023-03-12T10:58:01;11.2;;;4.5;;
68375;SDS011;55318;52.068;5.188;2023-03-12T10:59:39;11.3;;;5.2;;
68375;SDS011;55318;52.068;5.188;2023-03-12T11:01:18;11.0;;;4.7;;
68375;SDS011;55318;52.068;5.188;2023-03-12T11:04:36;12.5;;;4.2;;
68375;SDS011;55318;52.068;5.188;2023-03-12T11:06:18;14.9;;;4.91;;
68375;SDS011;55318;52.068;5.188;2023-03-12T11:07:58;12.1;;;5.0;;
68375;SDS011;55318;52.068;5.188;2023-03-12T11:09:36;12.9;;;4.61;;
68375;SDS011;55318;52.068;5.188;2023-03-12T11:13:26;12.5;;;5.4;;
68375;SDS011;55318;52.068;5.188;2023-03-12T11:15:22;13.1;;;4.1;;
68375;SDS011;55318;52.068;5.188;2023-03-12T11:17:16;11.7;;;4.61;;
68375;SDS011;55318;52.068;5.188;2023-03-12T11:18:56;12.6;;;4.41;;
68375;SDS011;55318;52.068;5.188;2023-03-12T11:20:35;9.71;;;3.4;;
68375;SDS011;55318;52.068;5.188;2023-03-12T11:22:11;11.7;;;3.7;;
68375;SDS011;55318;52.068;5.188;2023-03-12T11:25:49;12.9;;;4.8;;
68375;SDS011;55318;52.068;5.188;2023-03-12T11:27:30;17.41;;;3.9;;
68375;SDS011;55318;52.068;5.188;2023-03-12T11:29:21;11.0;;;3.6;;
68375;SDS011;55318;52.068;5.188;2023-03-12T11:31:02;16.4;;;5.4;;
68375;SDS011;55318;52.068;5.188;2023-03-12T11:32:43;10.5;;;3.3;;
68375;SDS011;55318;52.068;5.188;2023-03-12T11:36:07;11.6;;;4.41;;
68375;SDS011;55318;52.068;5.188;2023-03-12T11:38:00;13.8;;;3.8;;
68375;SDS011;55318;52.068;5.188;2023-03-12T11:39:47;11.2;;;4.41;;
68375;SDS011;55318;52.068;5.188;2023-03-12T11:41:45;16.9;;;4.5;;
68375;SDS011;55318;52.068;5.188;2023-03-12T11:43:40;13.2;;;5.11;;
68375;SDS011;55318;52.068;5.188;2023-03-12T11:45:30;8.0;;;3.5;;
68375;SDS011;55318;52.068;5.188;2023-03-12T11:47:21;9.71;;;4.2;;
68375;SDS011;55318;52.068;5.188;2023-03-12T11:51:06;15.9;;;4.0;;
68375;SDS011;55318;52.068;5.188;2023-03-12T11:52:59;16.61;;;3.8;;
68375;SDS011;55318;52.068;5.188;2023-03-12T11:55:20;12.3;;;4.5;;
68375;SDS011;55318;52.068;5.188;2023-03-12T11:57:16;13.1;;;3.5;;
68375;SDS011;55318;52.068;5.188;2023-03-12T11:59:26;11.0;;;4.3;;
68375;SDS011;55318;52.068;5.188;2023-03-12T12:01:15;14.2;;;4.7;;
68375;SDS011;55318;52.068;5.188;2023-03-12T12:03:18;11.3;;;3.5;;
68375;SDS011;55318;52.068;5.188;2023-03-12T12:06:08;12.3;;;4.3;;
68375;SDS011;55318;52.068;5.188;2023-03-12T12:09:57;12.4;;;3.0;;
68375;SDS011;55318;52.068;5.188;2023-03-12T12:11:48;13.4;;;4.1;;
68375;SDS011;55318;52.068;5.188;2023-03-12T12:13:39;12.9;;;3.2;;
68375;SDS011;55318;52.068;5.188;2023-03-12T12:15:30;15.4;;;4.2;;
68375;SDS011;55318;52.068;5.188;2023-03-12T12:17:16;9.6;;;3.1;;
68375;SDS011;55318;52.068;5.188;2023-03-12T12:19:09;11.1;;;3.4;;
68375;SDS011;55318;52.068;5.188;2023-03-12T12:20:57;11.3;;;3.4;;
68375;SDS011;55318;52.068;5.188;2023-03-12T12:24:37;9.5;;;3.5;;
68375;SDS011;55318;52.068;5.188;2023-03-12T12:26:25;11.0;;;4.1;;
68375;SDS011;55318;52.068;5.188;2023-03-12T12:28:16;13.1;;;3.8;;
68375;SDS011;55318;52.068;5.188;2023-03-12T12:30:17;12.9;;;4.7;;
68375;SDS011;55318;52.068;5.188;2023-03-12T12:32:03;9.71;;;4.1;;
68375;SDS011;55318;52.068;5.188;2023-03-12T12:33:53;10.6;;;3.3;;
68375;SDS011;55318;52.068;5.188;2023-03-12T12:35:44;17.41;;;4.5;;
68375;SDS011;55318;52.068;5.188;2023-03-12T12:39:10;11.6;;;4.41;;
68375;SDS011;55318;52.068;5.188;2023-03-12T12:40:52;14.9;;;4.3;;
68375;SDS011;55318;52.068;5.188;2023-03-12T12:42:35;11.5;;;3.5;;
68375;SDS011;55318;52.068;5.188;2023-03-12T12:44:24;16.5;;;4.7;;
68375;SDS011;55318;52.068;5.188;2023-03-12T12:46:08;10.1;;;2.6;;
68375;SDS011;55318;52.068;5.188;2023-03-12T12:49:34;12.8;;;3.4;;
68375;SDS011;55318;52.068;5.188;2023-03-12T12:51:19;18.3;;;3.4;;
68375;SDS011;55318;52.068;5.188;2023-03-12T12:53:02;20.2;;;4.7;;
68375;SDS011;55318;52.068;5.188;2023-03-12T12:54:55;12.8;;;4.7;;
68375;SDS011;55318;52.068;5.188;2023-03-12T12:56:40;15.0;;;4.41;;